Time;durP1;ratioP1;P1;durP2;ratioP2;P2;SDS_P1;SDS_P2;PMS_P1;PMS_P2;Temp;Humidity;BMP_temperature;BMP_pressure;BME280_temperature;BME280_humidity;BME280_pressure;Samples;Min_cycle;Max_cycle;Signal;HPM_P1;HPM_P2
2023/10/19 00:01:27;;;;;;;17.93;13.57;;;;;;;;;;4994882;28;20173;-70
2023/10/19 00:03:55;;;;;;;13.67;12.03;;;;;;;;;;4976548;28;20291;-69
2023/10/19 00:06:23;;;;;;;15.83;13.17;;;;;;;;;;4994129;28;20192;-69
2023/10/19 00:08:52;;;;;;;18.83;12.87;;;;;;;;;;4976441;28;20185;-69
2023/10/19 00:11:22;;;;;;;15.23;11.83;;;;;;;;;;4976905;28;20532;-70
2023/10/19 00:13:51;;;;;;;14.53;12.00;;;;;;;;;;4994494;28;20276;-69
2023/10/19 00:16:17;;;;;;;14.47;12.33;;;;;;;;;;4994242;28;20523;-70
2023/10/19 00:18:48;;;;;;;13.70;11.07;;;;;;;;;;4996602;28;20177;-70
2023/10/19 00:21:23;;;;;;;15.23;12.77;;;;;;;;;;4997829;28;20663;-70
2023/10/19 00:23:51;;;;;;;14.23;12.77;;;;;;;;;;4997961;28;20191;-70
2023/10/19 00:26:19;;;;;;;13.77;12.17;;;;;;;;;;4980588;28;20235;-70
2023/10/19 00:28:46;;;;;;;13.70;12.30;;;;;;;;;;4980392;28;20180;-70
2023/10/19 00:31:13;;;;;;;13.57;11.53;;;;;;;;;;4980398;28;20181;-69
2023/10/19 00:33:40;;;;;;;14.60;12.20;;;;;;;;;;4980446;28;20219;-69
2023/10/19 00:36:07;;;;;;;12.90;11.60;;;;;;;;;;4998189;28;20232;-69
2023/10/19 00:41:05;;;;;;;14.00;12.03;;;;;;;;;;4998225;28;20188;-69
2023/10/19 00:43:37;;;;;;;13.33;11.60;;;;;;;;;;4997687;28;20330;-70
2023/10/19 00:46:10;;;;;;;12.73;11.47;;;;;;;;;;4986363;28;20278;-69
2023/10/19 00:48:39;;;;;;;15.50;11.93;;;;;;;;;;4990099;28;20178;-70
2023/10/19 00:51:26;;;;;;;13.83;12.30;;;;;;;;;;4990879;28;20219;-70
2023/10/19 00:53:53;;;;;;;13.97;12.57;;;;;;;;;;4990034;28;20206;-70
2023/10/19 00:56:20;;;;;;;16.77;12.03;;;;;;;;;;4992130;28;20177;-69
2023/10/19 00:58:53;;;;;;;14.17;11.97;;;;;;;;;;4988732;28;20281;-70
2023/10/19 01:01:21;;;;;;;12.77;11.27;;;;;;;;;;4991613;28;20172;-70
2023/10/19 01:03:52;;;;;;;14.43;11.67;;;;;;;;;;5006657;28;20216;-70
2023/10/19 01:06:20;;;;;;;16.07;12.40;;;;;;;;;;4988656;28;20272;-71
2023/10/19 01:08:46;;;;;;;15.23;13.07;;;;;;;;;;5006379;28;20169;-70
2023/10/19 01:11:15;;;;;;;13.77;12.37;;;;;;;;;;5008128;28;20200;-70
2023/10/19 01:13:44;;;;;;;16.03;13.47;;;;;;;;;;4990181;28;20320;-69
2023/10/19 01:16:20;;;;;;;15.60;12.90;;;;;;;;;;4989355;28;20208;-71
2023/10/19 01:18:47;;;;;;;15.13;13.53;;;;;;;;;;4988928;28;20176;-69
2023/10/19 01:21:14;;;;;;;15.53;13.93;;;;;;;;;;5006325;28;20188;-70
2023/10/19 01:23:41;;;;;;;15.10;13.43;;;;;;;;;;5003875;28;20207;-70
2023/10/19 01:26:10;;;;;;;15.97;13.63;;;;;;;;;;5001519;28;20200;-70
2023/10/19 01:31:06;;;;;;;16.17;14.47;;;;;;;;;;4996484;28;20181;-70
2023/10/19 01:33:34;;;;;;;16.70;14.03;;;;;;;;;;4996731;28;20240;-70
2023/10/19 01:39:09;;;;;;;16.53;14.50;;;;;;;;;;4917968;29;20277;-70
2023/10/19 01:41:35;;;;;;;16.73;14.27;;;;;;;;;;4967161;28;20230;-70
2023/10/19 01:44:07;;;;;;;21.03;15.80;;;;;;;;;;4996379;28;20208;-70
2023/10/19 01:46:35;;;;;;;23.43;16.70;;;;;;;;;;4978792;28;20270;-70
2023/10/19 01:49:02;;;;;;;25.77;19.23;;;;;;;;;;4996505;28;20172;-70
2023/10/19 01:51:29;;;;;;;26.97;20.70;;;;;;;;;;4978815;28;20223;-70
2023/10/19 01:53:55;;;;;;;32.73;23.60;;;;;;;;;;4978532;28;20204;-70
2023/10/19 01:56:22;;;;;;;32.17;24.40;;;;;;;;;;4995939;28;20203;-70
2023/10/19 01:58:48;;;;;;;30.53;22.83;;;;;;;;;;4996529;28;20268;-70
2023/10/19 02:03:44;;;;;;;27.50;20.57;;;;;;;;;;4996360;28;20235;-68
2023/10/19 02:09:08;;;;;;;24.17;18.20;;;;;;;;;;4996013;28;20200;-70
2023/10/19 02:11:40;;;;;;;21.87;16.17;;;;;;;;;;4995963;28;20160;-71
2023/10/19 02:14:13;;;;;;;19.20;16.60;;;;;;;;;;4995772;28;20192;-70
2023/10/19 02:16:39;;;;;;;18.80;15.77;;;;;;;;;;5000203;28;20628;-69
2023/10/19 02:19:05;;;;;;;17.97;15.10;;;;;;;;;;5001705;28;20180;-70
2023/10/19 02:21:32;;;;;;;20.00;15.63;;;;;;;;;;4984342;28;20188;-70
2023/10/19 02:23:58;;;;;;;18.03;14.13;;;;;;;;;;5001959;28;20258;-70
2023/10/19 02:26:30;;;;;;;18.30;14.03;;;;;;;;;;5003288;28;20690;-70
2023/10/19 02:28:58;;;;;;;16.50;14.43;;;;;;;;;;4981534;28;20285;-70
2023/10/19 02:31:24;;;;;;;16.03;13.90;;;;;;;;;;4996400;28;20196;-70
2023/10/19 02:34:04;;;;;;;19.63;14.40;;;;;;;;;;4977995;28;20220;-70
2023/10/19 02:36:30;;;;;;;17.83;13.77;;;;;;;;;;4978091;28;20180;-71
2023/10/19 02:39:00;;;;;;;17.60;15.40;;;;;;;;;;4995279;28;20670;-70
2023/10/19 02:41:26;;;;;;;18.90;14.77;;;;;;;;;;4978194;28;20211;-70
2023/10/19 02:44:19;;;;;;;25.10;17.70;;;;;;;;;;4977951;28;20315;-70
2023/10/19 02:46:46;;;;;;;23.50;17.93;;;;;;;;;;4977468;28;20208;-70
2023/10/19 02:49:13;;;;;;;25.10;18.80;;;;;;;;;;4977593;28;20208;-70
2023/10/19 02:51:40;;;;;;;27.23;18.70;;;;;;;;;;4977715;28;20187;-70
2023/10/19 02:54:07;;;;;;;32.23;20.40;;;;;;;;;;4977160;28;20251;-70
2023/10/19 02:56:38;;;;;;;27.07;17.47;;;;;;;;;;4977136;28;20663;-70
2023/10/19 02:59:04;;;;;;;19.90;15.13;;;;;;;;;;4995028;28;20211;-71
2023/10/19 03:01:33;;;;;;;18.37;13.60;;;;;;;;;;4994654;28;20654;-70
2023/10/19 03:03:59;;;;;;;17.87;13.43;;;;;;;;;;4977264;28;20197;-69
2023/10/19 03:06:31;;;;;;;13.98;11.38;;;;;;;;;;4993366;28;20509;-69
2023/10/19 03:11:41;;;;;;;11.55;10.18;;;;;;;;;;4993373;28;20463;-70
2023/10/19 03:14:08;;;;;;;11.07;9.43;;;;;;;;;;4993960;28;20386;-69
2023/10/19 03:16:34;;;;;;;11.30;10.00;;;;;;;;;;5011958;23;20541;-70
2023/10/19 03:19:00;;;;;;;11.23;10.10;;;;;;;;;;4992764;28;20880;-70
2023/10/19 03:21:27;;;;;;;12.95;10.57;;;;;;;;;;4992995;28;20386;-70
2023/10/19 03:23:56;;;;;;;18.25;16.08;;;;;;;;;;4975288;28;20816;-70
2023/10/19 03:26:27;;;;;;;23.63;19.63;;;;;;;;;;4992692;28;20862;-69
2023/10/19 03:28:56;;;;;;;22.55;20.13;;;;;;;;;;4993313;28;20418;-70
2023/10/19 03:31:24;;;;;;;22.73;19.10;;;;;;;;;;4993948;28;20710;-70
2023/10/19 03:33:54;;;;;;;22.35;19.15;;;;;;;;;;4975622;28;20397;-70
2023/10/19 03:36:20;;;;;;;21.90;18.93;;;;;;;;;;4975294;28;20465;-70
2023/10/19 03:38:46;;;;;;;21.20;18.13;;;;;;;;;;4992604;28;20394;-70
2023/10/19 03:41:13;;;;;;;23.23;17.92;;;;;;;;;;4975144;28;20390;-70
2023/10/19 03:43:43;;;;;;;20.20;15.80;;;;;;;;;;4976750;28;20429;-70
2023/10/19 03:46:22;;;;;;;21.40;17.10;;;;;;;;;;4975637;28;20482;-70
2023/10/19 03:48:48;;;;;;;19.27;16.53;;;;;;;;;;4978508;28;20576;-70
2023/10/19 03:51:14;;;;;;;19.63;15.75;;;;;;;;;;4976621;28;20706;-70
2023/10/19 03:53:46;;;;;;;17.23;15.05;;;;;;;;;;4993922;28;20401;-70
2023/10/19 03:56:13;;;;;;;16.80;14.65;;;;;;;;;;4996953;28;20415;-70
2023/10/19 03:58:42;;;;;;;16.05;13.63;;;;;;;;;;4999105;28;20390;-70
2023/10/19 04:01:08;;;;;;;21.13;14.90;;;;;;;;;;4982057;28;20529;-70
2023/10/19 04:03:36;;;;;;;16.00;13.88;;;;;;;;;;4977256;28;20399;-70
2023/10/19 04:06:04;;;;;;;15.75;13.90;;;;;;;;;;4992902;28;20409;-70
2023/10/19 04:08:37;;;;;;;16.77;14.30;;;;;;;;;;4992411;28;20753;-70
2023/10/19 04:11:11;;;;;;;18.95;14.30;;;;;;;;;;4974569;28;20386;-70
2023/10/19 04:13:37;;;;;;;17.10;14.23;;;;;;;;;;4992418;28;20747;-70
2023/10/19 04:16:03;;;;;;;19.17;14.98;;;;;;;;;;4992016;28;20406;-69
2023/10/19 04:18:29;;;;;;;18.48;14.90;;;;;;;;;;4992190;28;20378;-69
2023/10/19 04:20:56;;;;;;;18.77;14.82;;;;;;;;;;4974613;28;20959;-70
2023/10/19 04:23:26;;;;;;;18.30;14.63;;;;;;;;;;4974688;28;20433;-70
2023/10/19 04:25:52;;;;;;;18.58;14.52;;;;;;;;;;4991851;28;20414;-69
2023/10/19 04:28:25;;;;;;;18.27;14.85;;;;;;;;;;4974497;28;20793;-69
2023/10/19 04:30:51;;;;;;;18.30;14.70;;;;;;;;;;4992363;28;20755;-69
2023/10/19 04:33:18;;;;;;;18.60;14.93;;;;;;;;;;4991995;28;20390;-69
2023/10/19 04:35:45;;;;;;;21.05;14.80;;;;;;;;;;4974350;28;20398;-70
2023/10/19 04:38:11;;;;;;;14.63;13.00;;;;;;;;;;4974446;28;20481;-69
2023/10/19 04:40:37;;;;;;;15.18;11.70;;;;;;;;;;4974680;28;20489;-69
2023/10/19 04:43:07;;;;;;;13.75;11.35;;;;;;;;;;4992520;28;20469;-70
2023/10/19 04:45:33;;;;;;;15.18;11.70;;;;;;;;;;4974050;28;20402;-70
2023/10/19 04:47:58;;;;;;;15.18;11.18;;;;;;;;;;4991790;28;20410;-70
2023/10/19 04:50:25;;;;;;;13.13;10.97;;;;;;;;;;4974435;28;20421;-70
2023/10/19 04:52:51;;;;;;;16.13;11.65;;;;;;;;;;4974401;28;20390;-71
2023/10/19 04:55:17;;;;;;;20.25;14.10;;;;;;;;;;4974813;28;20401;-70
2023/10/19 04:57:43;;;;;;;20.30;14.45;;;;;;;;;;4991737;28;20414;-71
2023/10/19 05:00:13;;;;;;;18.55;13.52;;;;;;;;;;4991934;28;20431;-71
2023/10/19 05:02:39;;;;;;;18.92;14.13;;;;;;;;;;4991662;28;20452;-71
2023/10/19 05:05:05;;;;;;;17.38;13.70;;;;;;;;;;4992874;28;20390;-70
2023/10/19 05:07:31;;;;;;;19.73;14.70;;;;;;;;;;4977694;28;20730;-70
2023/10/19 05:09:59;;;;;;;17.70;13.80;;;;;;;;;;4994960;28;20533;-71
2023/10/19 05:12:25;;;;;;;20.48;14.38;;;;;;;;;;4977921;28;20753;-70
2023/10/19 05:14:51;;;;;;;18.15;14.25;;;;;;;;;;4995359;28;20390;-70
2023/10/19 05:17:20;;;;;;;18.05;13.48;;;;;;;;;;4977447;28;20398;-69
2023/10/19 05:19:46;;;;;;;19.48;13.45;;;;;;;;;;4995031;28;20386;-70
2023/10/19 05:22:12;;;;;;;19.10;13.45;;;;;;;;;;4995867;28;20397;-71
2023/10/19 05:24:38;;;;;;;17.92;12.68;;;;;;;;;;4994775;28;20387;-70
2023/10/19 05:27:05;;;;;;;15.82;13.23;;;;;;;;;;4994749;28;20465;-70
2023/10/19 05:29:34;;;;;;;19.90;14.10;;;;;;;;;;4978788;28;20778;-70
2023/10/19 05:32:00;;;;;;;18.85;13.68;;;;;;;;;;4977493;28;20469;-71
2023/10/19 05:34:29;;;;;;;18.83;14.20;;;;;;;;;;4977250;28;20482;-70
2023/10/19 05:36:58;;;;;;;20.65;15.38;;;;;;;;;;4994667;28;20387;-71
2023/10/19 05:39:27;;;;;;;20.52;14.73;;;;;;;;;;4977292;28;20417;-70
2023/10/19 05:41:54;;;;;;;23.65;15.00;;;;;;;;;;4977156;28;20746;-71
2023/10/19 05:44:20;;;;;;;19.42;15.00;;;;;;;;;;4994926;28;20386;-70
2023/10/19 05:46:46;;;;;;;19.15;14.05;;;;;;;;;;4996939;28;20410;-69
2023/10/19 05:49:12;;;;;;;19.15;13.23;;;;;;;;;;4999825;28;20409;-70
2023/10/19 05:51:39;;;;;;;14.00;10.73;;;;;;;;;;5003102;28;20429;-70
2023/10/19 05:54:05;;;;;;;15.30;10.45;;;;;;;;;;4981178;28;20801;-70
2023/10/19 05:56:34;;;;;;;12.50;8.95;;;;;;;;;;5003981;28;20999;-70
2023/10/19 05:59:01;;;;;;;10.88;8.07;;;;;;;;;;4977966;28;20398;-70
2023/10/19 06:01:27;;;;;;;11.32;8.13;;;;;;;;;;4977084;28;20758;-70
2023/10/19 06:03:53;;;;;;;11.20;8.13;;;;;;;;;;4994446;28;20864;-70
2023/10/19 06:06:22;;;;;;;11.32;7.78;;;;;;;;;;4976445;28;20414;-70
2023/10/19 06:08:49;;;;;;;11.02;7.40;;;;;;;;;;4976439;28;20395;-70
2023/10/19 06:11:15;;;;;;;11.98;7.47;;;;;;;;;;4993959;28;20405;-70
2023/10/19 06:13:41;;;;;;;8.80;7.88;;;;;;;;;;4976512;28;20885;-70
2023/10/19 06:16:07;;;;;;;9.67;7.63;;;;;;;;;;4993451;28;20410;-70
2023/10/19 06:18:33;;;;;;;9.82;7.88;;;;;;;;;;4976533;28;20481;-70
2023/10/19 06:20:59;;;;;;;9.07;7.70;;;;;;;;;;4996138;28;20391;-70
2023/10/19 06:23:25;;;;;;;9.95;7.72;;;;;;;;;;4976347;28;20390;-70
2023/10/19 06:25:54;;;;;;;10.90;7.90;;;;;;;;;;4976521;28;20568;-69
2023/10/19 06:28:20;;;;;;;11.50;8.57;;;;;;;;;;4993712;28;20379;-70
2023/10/19 06:30:48;;;;;;;13.02;9.38;;;;;;;;;;4976360;28;20458;-69
2023/10/19 06:33:13;;;;;;;13.18;10.07;;;;;;;;;;4976311;28;20379;-70
2023/10/19 06:35:40;;;;;;;15.82;9.68;;;;;;;;;;4994094;28;20879;-70
2023/10/19 06:38:09;;;;;;;15.60;11.07;;;;;;;;;;4976532;28;20389;-70
2023/10/19 06:40:38;;;;;;;16.55;10.05;;;;;;;;;;4976109;28;20449;-70
2023/10/19 06:43:05;;;;;;;14.93;11.68;;;;;;;;;;4993612;28;20501;-70
2023/10/19 06:45:31;;;;;;;18.35;14.18;;;;;;;;;;4976138;28;20395;-70
2023/10/19 06:47:58;;;;;;;19.15;15.00;;;;;;;;;;4993948;28;20394;-70
2023/10/19 06:50:25;;;;;;;18.70;16.13;;;;;;;;;;4976980;28;20721;-70
2023/10/19 06:52:51;;;;;;;24.02;17.58;;;;;;;;;;4995005;28;20408;-70
2023/10/19 06:55:22;;;;;;;22.13;16.40;;;;;;;;;;4976405;28;20387;-70
2023/10/19 06:57:49;;;;;;;22.55;16.35;;;;;;;;;;4993772;28;20491;-70
2023/10/19 07:00:19;;;;;;;21.70;16.15;;;;;;;;;;4993747;28;20437;-70
2023/10/19 07:02:46;;;;;;;22.27;16.70;;;;;;;;;;4993401;28;20382;-70
2023/10/19 07:05:13;;;;;;;16.75;13.00;;;;;;;;;;4975939;28;20395;-70
2023/10/19 07:07:43;;;;;;;18.73;13.70;;;;;;;;;;4993447;28;20464;-70
2023/10/19 07:10:10;;;;;;;15.23;11.50;;;;;;;;;;4993189;28;20426;-70
2023/10/19 07:12:39;;;;;;;17.42;12.38;;;;;;;;;;4975945;28;20402;-70
2023/10/19 07:15:07;;;;;;;15.25;11.68;;;;;;;;;;4975333;28;20907;-68
2023/10/19 07:17:37;;;;;;;14.98;11.88;;;;;;;;;;4992930;28;20441;-70
2023/10/19 07:20:05;;;;;;;16.05;11.45;;;;;;;;;;4975530;28;20879;-70
2023/10/19 07:22:31;;;;;;;19.33;13.07;;;;;;;;;;4994456;28;20386;-70
2023/10/19 07:24:57;;;;;;;24.00;15.90;;;;;;;;;;4992618;28;20936;-70
2023/10/19 07:27:27;;;;;;;22.27;16.20;;;;;;;;;;4992209;28;20484;-70
2023/10/19 07:29:53;;;;;;;21.85;14.77;;;;;;;;;;4992819;28;20378;-69
2023/10/19 07:32:19;;;;;;;21.40;15.10;;;;;;;;;;4994303;28;20385;-69
2023/10/19 07:34:46;;;;;;;19.95;14.82;;;;;;;;;;4993133;28;20818;-70
2023/10/19 07:37:15;;;;;;;19.17;15.07;;;;;;;;;;4975209;28;20433;-70
2023/10/19 07:39:47;;;;;;;27.23;18.42;;;;;;;;;;4975132;28;20773;-70
2023/10/19 07:42:15;;;;;;;21.50;16.05;;;;;;;;;;4993051;28;20391;-70
2023/10/19 07:44:41;;;;;;;22.05;16.88;;;;;;;;;;4975014;28;20387;-70
2023/10/19 07:47:09;;;;;;;22.80;17.45;;;;;;;;;;4992340;28;20845;-71
2023/10/19 07:49:39;;;;;;;19.95;16.70;;;;;;;;;;4975105;28;20497;-69
2023/10/19 07:52:06;;;;;;;21.25;17.17;;;;;;;;;;4974619;28;20399;-70
2023/10/19 07:54:33;;;;;;;21.85;16.90;;;;;;;;;;4992273;28;20390;-70
2023/10/19 07:57:03;;;;;;;17.65;14.80;;;;;;;;;;4992351;28;20382;-70
2023/10/19 07:59:29;;;;;;;20.92;15.30;;;;;;;;;;4974750;28;20390;-70
2023/10/19 08:01:55;;;;;;;16.13;13.93;;;;;;;;;;4992522;28;20382;-70
2023/10/19 08:04:21;;;;;;;16.90;13.02;;;;;;;;;;4992207;28;20386;-70
2023/10/19 08:06:47;;;;;;;16.03;11.33;;;;;;;;;;4991783;28;20418;-70
2023/10/19 08:09:13;;;;;;;11.88;9.73;;;;;;;;;;4992393;28;20758;-71
2023/10/19 08:11:41;;;;;;;15.60;10.52;;;;;;;;;;4992004;28;20414;-69
2023/10/19 08:14:08;;;;;;;16.02;10.38;;;;;;;;;;4974529;28;20436;-70
2023/10/19 08:16:34;;;;;;;14.13;10.20;;;;;;;;;;4974871;28;20908;-70
2023/10/19 08:19:00;;;;;;;13.77;10.18;;;;;;;;;;4992356;28;20394;-68
2023/10/19 08:21:28;;;;;;;12.40;8.90;;;;;;;;;;4975510;28;20387;-70
2023/10/19 08:23:55;;;;;;;12.20;8.68;;;;;;;;;;4994207;28;20390;-70
2023/10/19 08:26:21;;;;;;;13.30;8.48;;;;;;;;;;4992383;28;20413;-68
2023/10/19 08:28:47;;;;;;;13.35;8.40;;;;;;;;;;4992019;28;20383;-69
2023/10/19 08:31:14;;;;;;;10.82;8.15;;;;;;;;;;4974641;28;20375;-69
2023/10/19 08:33:41;;;;;;;11.07;8.10;;;;;;;;;;4992206;28;20382;-69
2023/10/19 08:36:07;;;;;;;11.47;8.50;;;;;;;;;;4974227;28;20469;-67
2023/10/19 08:38:33;;;;;;;10.52;8.05;;;;;;;;;;4974719;28;20923;-69
2023/10/19 08:40:59;;;;;;;11.63;8.30;;;;;;;;;;4995697;28;20421;-67
2023/10/19 08:43:25;;;;;;;12.75;8.73;;;;;;;;;;4978811;28;20406;-69
2023/10/19 08:45:51;;;;;;;13.43;9.02;;;;;;;;;;4978245;28;20420;-69
2023/10/19 08:48:18;;;;;;;11.00;8.70;;;;;;;;;;4995591;28;20374;-68
2023/10/19 08:50:46;;;;;;;12.90;8.15;;;;;;;;;;4995530;28;20378;-68
2023/10/19 08:53:14;;;;;;;11.90;9.18;;;;;;;;;;4979169;28;20757;-69
2023/10/19 08:55:40;;;;;;;;;;;;;;;;;;4979429;28;20033;-69
2023/10/19 08:58:06;;;;;;;;;;;;;;;;;;4979507;28;20034;-69
2023/10/19 09:00:34;;;;;;;;;;;;;;;;;;4979995;28;19944;-69
2023/10/19 09:03:04;;;;;;;;;;;;;;;;;;4979747;28;19905;-69
2023/10/19 09:05:30;;;;;;;;;;;;;;;;;;4979476;28;20415;-69
2023/10/19 09:07:56;;;;;;;;;;;;;;;;;;4996869;28;20000;-69
2023/10/19 09:10:22;;;;;;;;;;;;;;;;;;4996803;28;19905;-69
2023/10/19 09:12:48;;;;;;;;;;;;;;;;;;4996586;28;19972;-70
2023/10/19 09:15:14;;;;;;;;;;;;;;;;;;4996168;28;20013;-69
2023/10/19 09:17:40;;;;;;;;;;;;;;;;;;4997036;28;19921;-69
2023/10/19 09:20:09;;;;;;;;;;;;;;;;;;4997159;28;20260;-70
2023/10/19 09:22:36;;;;;;;;;;;;;;;;;;4979184;28;19913;-70
2023/10/19 09:25:06;;;;;;;;;;;;;;;;;;4996799;28;19912;-69
2023/10/19 09:27:33;;;;;;;;;;;;;;;;;;4979249;28;19972;-69
2023/10/19 09:30:01;;;;;;;14.55;7.60;;;;;;;;;;4977240;28;20415;-69
2023/10/19 09:32:27;;;;;;;9.63;7.07;;;;;;;;;;5025459;22;20246;-72
2023/10/19 09:34:53;;;;;;;11.07;7.27;;;;;;;;;;5018077;28;20658;-70
2023/10/19 09:37:19;;;;;;;12.13;7.10;;;;;;;;;;5018615;28;20172;-71
2023/10/19 09:39:45;;;;;;;10.23;6.53;;;;;;;;;;5018582;28;20180;-72
2023/10/19 09:42:16;;;;;;;13.03;7.57;;;;;;;;;;5017264;28;20200;-71
2023/10/19 09:44:43;;;;;;;11.60;6.60;;;;;;;;;;5017054;28;20175;-71
2023/10/19 09:47:16;;;;;;;10.90;6.30;;;;;;;;;;5018082;28;20200;-70
2023/10/19 09:49:45;;;;;;;11.80;5.60;;;;;;;;;;5017189;28;20157;-70
2023/10/19 09:52:14;;;;;;;10.30;5.63;;;;;;;;;;5015419;28;20199;-71
2023/10/19 09:54:47;;;;;;;11.93;5.43;;;;;;;;;;5015838;28;20235;-71
2023/10/19 09:57:16;;;;;;;9.57;5.53;;;;;;;;;;5015990;28;20654;-71
2023/10/19 09:59:45;;;;;;;8.73;5.70;;;;;;;;;;5015917;28;20218;-71
2023/10/19 10:02:12;;;;;;;10.03;5.07;;;;;;;;;;5017785;28;20204;-71
2023/10/19 10:04:39;;;;;;;11.03;4.93;;;;;;;;;;5020304;28;20759;-71
2023/10/19 10:07:07;;;;;;;10.53;4.40;;;;;;;;;;5022419;28;20203;-72
2023/10/19 10:09:40;;;;;;;12.20;6.00;;;;;;;;;;5020577;28;20247;-71
2023/10/19 10:12:24;;;;;;;10.03;5.60;;;;;;;;;;5017978;28;20222;-71
2023/10/19 10:14:59;;;;;;;10.90;5.77;;;;;;;;;;5017310;28;20172;-72
2023/10/19 10:17:27;;;;;;;11.80;5.07;;;;;;;;;;5021005;28;20163;-72
2023/10/19 10:19:57;;;;;;;13.13;5.70;;;;;;;;;;5019925;28;20259;-70
2023/10/19 10:22:23;;;;;;;15.73;4.30;;;;;;;;;;5017179;28;20250;-71
2023/10/19 10:24:54;;;;;;;14.17;4.17;;;;;;;;;;5019542;28;20242;-71
2023/10/19 10:27:20;;;;;;;8.83;4.13;;;;;;;;;;5015554;28;20668;-71
2023/10/19 10:30:01;;;;;;;10.40;3.97;;;;;;;;;;5015219;28;20203;-71
2023/10/19 10:32:47;;;;;;;9.87;3.90;;;;;;;;;;5016572;28;20587;-72
2023/10/19 10:35:49;;;;;;;10.27;3.70;;;;;;;;;;5015189;28;20167;-71
2023/10/19 10:38:15;;;;;;;9.30;3.30;;;;;;;;;;4975301;28;20191;-72
2023/10/19 10:40:45;;;;;;;9.17;3.47;;;;;;;;;;5006968;28;20215;-72
2023/10/19 10:43:12;;;;;;;15.33;2.90;;;;;;;;;;5018302;28;20251;-71
2023/10/19 10:45:38;;;;;;;9.77;3.50;;;;;;;;;;5026927;28;20543;-72
2023/10/19 10:48:04;;;;;;;7.10;3.40;;;;;;;;;;5025679;28;20179;-72
2023/10/19 10:50:30;;;;;;;8.87;3.67;;;;;;;;;;5024273;28;20176;-72
2023/10/19 10:52:59;;;;;;;11.10;3.77;;;;;;;;;;5019498;28;20571;-72
2023/10/19 10:55:25;;;;;;;14.23;3.80;;;;;;;;;;5019844;28;20180;-72
2023/10/19 10:57:51;;;;;;;12.57;4.20;;;;;;;;;;5016764;28;20692;-71
2023/10/19 11:00:25;;;;;;;8.83;4.20;;;;;;;;;;5016238;28;20191;-73
2023/10/19 11:03:07;;;;;;;12.07;4.67;;;;;;;;;;5016114;28;20693;-72
2023/10/19 11:05:35;;;;;;;9.00;3.63;;;;;;;;;;5017456;28;20194;-71
2023/10/19 11:08:14;;;;;;;9.50;3.47;;;;;;;;;;5015147;28;20176;-72
2023/10/19 11:10:46;;;;;;;7.30;3.07;;;;;;;;;;5014737;28;20176;-71
2023/10/19 11:13:13;;;;;;;9.23;3.53;;;;;;;;;;5013532;28;20195;-72
2023/10/19 11:15:40;;;;;;;9.47;3.63;;;;;;;;;;5015364;28;20175;-71
2023/10/19 11:18:10;;;;;;;13.60;4.53;;;;;;;;;;5013713;28;20642;-72
2023/10/19 11:20:35;;;;;;;10.03;3.77;;;;;;;;;;5014870;28;20180;-72
2023/10/19 11:23:02;;;;;;;8.63;3.63;;;;;;;;;;5016366;28;20207;-72
2023/10/19 11:25:29;;;;;;;10.33;3.80;;;;;;;;;;5014880;28;20184;-72
2023/10/19 11:27:58;;;;;;;13.30;4.30;;;;;;;;;;5014006;28;20768;-72
2023/10/19 11:30:25;;;;;;;13.57;4.77;;;;;;;;;;5014481;28;20176;-71
2023/10/19 11:32:57;;;;;;;9.67;3.83;;;;;;;;;;5014168;28;20238;-72
2023/10/19 11:35:23;;;;;;;13.67;3.90;;;;;;;;;;5013037;28;20254;-72
2023/10/19 11:37:50;;;;;;;10.87;3.83;;;;;;;;;;5015320;28;20195;-71
2023/10/19 11:40:16;;;;;;;13.37;3.67;;;;;;;;;;5013908;28;20183;-71
2023/10/19 11:42:43;;;;;;;10.97;3.70;;;;;;;;;;5013176;28;20266;-71
2023/10/19 11:45:09;;;;;;;9.20;3.43;;;;;;;;;;5013394;28;20554;-71
2023/10/19 11:47:35;;;;;;;12.23;3.40;;;;;;;;;;5014921;28;20206;-71
2023/10/19 11:50:01;;;;;;;8.73;2.87;;;;;;;;;;5014313;28;20175;-70
2023/10/19 11:52:27;;;;;;;10.90;3.43;;;;;;;;;;5014840;28;20665;-71
2023/10/19 11:54:54;;;;;;;10.97;3.50;;;;;;;;;;5014260;28;20548;-71
2023/10/19 11:57:20;;;;;;;11.33;4.03;;;;;;;;;;5012781;28;20562;-71
2023/10/19 11:59:52;;;;;;;7.57;3.60;;;;;;;;;;5013035;28;20180;-71
2023/10/19 12:02:18;;;;;;;10.33;3.63;;;;;;;;;;5013604;28;20209;-71
2023/10/19 12:04:45;;;;;;;10.73;3.03;;;;;;;;;;5013412;28;20315;-72
2023/10/19 12:07:11;;;;;;;14.93;3.97;;;;;;;;;;5012064;28;20207;-72
2023/10/19 12:09:37;;;;;;;8.77;3.20;;;;;;;;;;5013393;28;20665;-71
2023/10/19 12:12:05;;;;;;;12.53;3.43;;;;;;;;;;5013222;28;20208;-71
2023/10/19 12:14:34;;;;;;;8.20;3.00;;;;;;;;;;5015211;28;20178;-71
2023/10/19 12:17:01;;;;;;;12.17;3.40;;;;;;;;;;5016175;28;20649;-71
2023/10/19 12:19:29;;;;;;;10.70;2.80;;;;;;;;;;5018306;28;20179;-70
2023/10/19 12:21:55;;;;;;;7.57;3.27;;;;;;;;;;5018376;28;20235;-71
2023/10/19 12:24:22;;;;;;;8.27;2.87;;;;;;;;;;5019390;28;20180;-71
2023/10/19 12:26:48;;;;;;;10.43;3.13;;;;;;;;;;5016439;28;20294;-71
2023/10/19 12:29:17;;;;;;;12.00;3.30;;;;;;;;;;5017051;28;20218;-71
2023/10/19 12:31:42;;;;;;;11.67;3.27;;;;;;;;;;5017953;28;20678;-71
2023/10/19 12:34:11;;;;;;;12.13;3.07;;;;;;;;;;5016464;28;20233;-71
2023/10/19 12:36:37;;;;;;;14.23;2.70;;;;;;;;;;5015965;28;20180;-71
2023/10/19 12:39:06;;;;;;;8.30;3.03;;;;;;;;;;5017206;28;20645;-72
2023/10/19 12:41:33;;;;;;;10.47;2.83;;;;;;;;;;5017662;28;20195;-72
2023/10/19 12:44:02;;;;;;;8.07;2.97;;;;;;;;;;5016582;28;20183;-71
2023/10/19 12:46:29;;;;;;;11.23;2.70;;;;;;;;;;5017400;28;20203;-71
2023/10/19 12:48:56;;;;;;;7.87;2.87;;;;;;;;;;5015830;28;20183;-71
2023/10/19 12:51:25;;;;;;;9.63;3.37;;;;;;;;;;5016806;28;20192;-71
2023/10/19 12:53:51;;;;;;;12.13;3.10;;;;;;;;;;5016822;28;20263;-71
2023/10/19 12:56:18;;;;;;;9.27;3.43;;;;;;;;;;5015395;28;20215;-71
2023/10/19 12:58:44;;;;;;;13.13;3.30;;;;;;;;;;5015335;28;20195;-71
2023/10/19 13:01:19;;;;;;;15.20;3.63;;;;;;;;;;5016771;28;20184;-72
2023/10/19 13:03:51;;;;;;;12.83;3.33;;;;;;;;;;5017480;28;20159;-71
2023/10/19 13:06:19;;;;;;;11.57;3.00;;;;;;;;;;5016699;28;20215;-71
2023/10/19 13:08:46;;;;;;;16.00;3.87;;;;;;;;;;5016589;28;20175;-72
2023/10/19 13:11:15;;;;;;;13.23;3.00;;;;;;;;;;5015048;28;20187;-72
2023/10/19 13:13:41;;;;;;;9.43;3.53;;;;;;;;;;5015656;28;20179;-71
2023/10/19 13:16:09;;;;;;;14.13;3.43;;;;;;;;;;5017206;28;20180;-71
2023/10/19 13:18:35;;;;;;;9.67;3.90;;;;;;;;;;5017154;28;20175;-72
2023/10/19 13:21:04;;;;;;;20.20;4.53;;;;;;;;;;5016438;28;20187;-71
2023/10/19 13:23:32;;;;;;;11.80;4.30;;;;;;;;;;5015903;28;20187;-71
2023/10/19 13:26:08;;;;;;;10.07;4.10;;;;;;;;;;5015609;28;20210;-71
2023/10/19 13:28:37;;;;;;;16.83;4.03;;;;;;;;;;5017237;28;20183;-71
2023/10/19 13:31:03;;;;;;;19.70;7.90;;;;;;;;;;5017138;28;20175;-71
2023/10/19 13:33:29;;;;;;;25.23;9.20;;;;;;;;;;5016925;28;20187;-73
2023/10/19 13:35:55;;;;;;;23.13;6.40;;;;;;;;;;5015472;28;20194;-71
2023/10/19 13:38:22;;;;;;;14.90;6.27;;;;;;;;;;5015637;28;20183;-72
2023/10/19 13:40:51;;;;;;;16.73;6.80;;;;;;;;;;5017079;28;20188;-72
2023/10/19 13:43:17;;;;;;;14.27;5.00;;;;;;;;;;5017203;28;20259;-69
2023/10/19 13:45:44;;;;;;;11.87;4.47;;;;;;;;;;5015926;28;20245;-69
2023/10/19 13:48:11;;;;;;;13.43;4.43;;;;;;;;;;5016599;28;20639;-70
2023/10/19 13:50:42;;;;;;;7.77;4.07;;;;;;;;;;5016631;28;20182;-69
2023/10/19 13:53:09;;;;;;;11.87;4.67;;;;;;;;;;5016224;28;20203;-72
2023/10/19 13:55:38;;;;;;;11.53;5.53;;;;;;;;;;5015004;28;20642;-70
2023/10/19 13:58:06;;;;;;;18.57;4.80;;;;;;;;;;5016434;28;20187;-69
2023/10/19 14:03:01;;;;;;;12.13;4.70;;;;;;;;;;5016289;28;20231;-69
2023/10/19 14:05:28;;;;;;;10.07;3.60;;;;;;;;;;5016584;28;20176;-70
2023/10/19 14:07:54;;;;;;;12.07;4.20;;;;;;;;;;5016028;28;20195;-70
2023/10/19 14:10:21;;;;;;;8.47;3.17;;;;;;;;;;5015608;28;20263;-70
2023/10/19 14:12:47;;;;;;;10.83;3.43;;;;;;;;;;5014675;28;20689;-70
2023/10/19 14:15:17;;;;;;;8.17;3.10;;;;;;;;;;5016033;28;20622;-69
2023/10/19 14:17:45;;;;;;;12.00;4.07;;;;;;;;;;5015867;28;20265;-70
2023/10/19 14:20:14;;;;;;;9.77;3.63;;;;;;;;;;5014408;28;20188;-69
2023/10/19 14:22:41;;;;;;;16.10;3.77;;;;;;;;;;5016140;28;20611;-69
2023/10/19 14:25:13;;;;;;;13.90;5.10;;;;;;;;;;5014443;28;20654;-70
2023/10/19 14:27:40;;;;;;;10.80;4.40;;;;;;;;;;5016036;28;20198;-70
2023/10/19 14:30:07;;;;;;;12.00;4.30;;;;;;;;;;5015910;28;20187;-70
2023/10/19 14:32:33;;;;;;;11.93;3.87;;;;;;;;;;5017095;28;20216;-70
2023/10/19 14:34:59;;;;;;;13.40;5.50;;;;;;;;;;5030353;28;20175;-71
2023/10/19 14:37:25;;;;;;;12.20;4.70;;;;;;;;;;5025383;28;20191;-70
2023/10/19 14:39:51;;;;;;;11.87;4.60;;;;;;;;;;5016822;28;20230;-70
2023/10/19 14:42:17;;;;;;;10.13;3.97;;;;;;;;;;5017399;28;20203;-70
2023/10/19 14:44:43;;;;;;;11.10;4.03;;;;;;;;;;5016152;28;20175;-70
2023/10/19 14:47:09;;;;;;;13.93;4.00;;;;;;;;;;5016893;28;20210;-71
2023/10/19 14:49:35;;;;;;;12.77;6.10;;;;;;;;;;5015610;28;20275;-70
2023/10/19 14:52:01;;;;;;;11.03;4.00;;;;;;;;;;5014154;28;20231;-70